Time;durP1;ratioP1;P1;durP2;ratioP2;P2;SDS_P1;SDS_P2;PMS_P1;PMS_P2;Temp;Humidity;BMP_temperature;BMP_pressure;BME280_temperature;BME280_humidity;BME280_pressure;Samples;Min_cycle;Max_cycle;Signal;HPM_P1;HPM_P2
2023/12/30 00:02:04;;;;;;;1.90;1.70;;;;;;;;;;5081236;28;20848;-85
2023/12/30 00:04:31;;;;;;;1.70;1.50;;;;;;;;;;5079553;28;21190;-84
2023/12/30 00:06:57;;;;;;;2.20;1.40;;;;;;;;;;5081426;28;20426;-85
2023/12/30 00:09:23;;;;;;;1.60;1.33;;;;;;;;;;5064333;28;20387;-85
2023/12/30 00:11:49;;;;;;;1.65;1.38;;;;;;;;;;5082734;28;20391;-85
2023/12/30 00:14:15;;;;;;;1.77;1.40;;;;;;;;;;5082742;28;20489;-85
2023/12/30 00:16:41;;;;;;;2.00;1.10;;;;;;;;;;5065507;28;20384;-85
2023/12/30 00:19:08;;;;;;;1.40;1.30;;;;;;;;;;5065613;28;20391;-85
2023/12/30 00:21:34;;;;;;;2.33;1.52;;;;;;;;;;5083647;28;20375;-85
2023/12/30 00:24:01;;;;;;;1.40;1.20;;;;;;;;;;5080142;28;20413;-85
2023/12/30 00:26:27;;;;;;;1.35;1.20;;;;;;;;;;5079910;28;20379;-85
2023/12/30 00:28:53;;;;;;;2.00;1.40;;;;;;;;;;5063136;28;20451;-85
2023/12/30 00:31:26;;;;;;;2.05;1.67;;;;;;;;;;5080122;28;20384;-85
2023/12/30 00:33:53;;;;;;;2.20;2.00;;;;;;;;;;5062449;28;20396;-85
2023/12/30 00:36:19;;;;;;;2.80;2.30;;;;;;;;;;5079378;28;20372;-85
2023/12/30 00:38:45;;;;;;;2.72;2.08;;;;;;;;;;5061724;28;20770;-84
2023/12/30 00:41:13;;;;;;;2.00;1.80;;;;;;;;;;5079356;28;20399;-85
2023/12/30 00:43:39;;;;;;;2.90;1.90;;;;;;;;;;5079492;28;20404;-85
2023/12/30 00:46:05;;;;;;;2.10;1.90;;;;;;;;;;5079408;28;20429;-85
2023/12/30 00:48:31;;;;;;;1.97;1.73;;;;;;;;;;5079648;28;20391;-84
2023/12/30 00:50:57;;;;;;;2.03;1.63;;;;;;;;;;5079830;28;20381;-84
2023/12/30 00:53:23;;;;;;;2.10;1.70;;;;;;;;;;5080137;28;20421;-85
2023/12/30 00:55:49;;;;;;;2.08;1.75;;;;;;;;;;5099236;28;20832;-85
2023/12/30 00:58:15;;;;;;;1.80;1.60;;;;;;;;;;5081342;28;20378;-85
2023/12/30 01:00:41;;;;;;;1.70;1.50;;;;;;;;;;5100141;28;20454;-85
2023/12/30 01:03:07;;;;;;;2.08;1.50;;;;;;;;;;5099829;28;20381;-85
2023/12/30 01:05:33;;;;;;;1.92;1.45;;;;;;;;;;5098236;28;20374;-85
2023/12/30 01:07:59;;;;;;;2.42;1.30;;;;;;;;;;5098508;28;20374;-85
2023/12/30 01:10:25;;;;;;;1.55;1.08;;;;;;;;;;5098922;28;20371;-84
2023/12/30 01:12:51;;;;;;;1.70;1.02;;;;;;;;;;5098435;28;20378;-85
2023/12/30 01:15:17;;;;;;;2.20;1.20;;;;;;;;;;5098872;28;20770;-85
2023/12/30 01:17:43;;;;;;;3.40;1.27;;;;;;;;;;5096670;28;20408;-84
2023/12/30 01:20:09;;;;;;;1.33;1.00;;;;;;;;;;5097029;28;20858;-85
2023/12/30 01:22:35;;;;;;;2.78;1.80;;;;;;;;;;5096705;28;20377;-84
2023/12/30 01:25:01;;;;;;;3.42;2.40;;;;;;;;;;5096037;28;20370;-84
2023/12/30 01:27:27;;;;;;;3.63;2.43;;;;;;;;;;5094725;28;20950;-85
2023/12/30 01:29:53;;;;;;;2.45;1.50;;;;;;;;;;5095141;28;20378;-84
2023/12/30 01:32:19;;;;;;;2.25;1.63;;;;;;;;;;5095483;28;20380;-85
2023/12/30 01:34:45;;;;;;;2.03;1.40;;;;;;;;;;5077270;28;20816;-84
2023/12/30 01:37:11;;;;;;;3.03;1.90;;;;;;;;;;5077078;28;20378;-85
2023/12/30 01:39:37;;;;;;;4.07;3.17;;;;;;;;;;5095471;28;20416;-84
2023/12/30 01:42:03;;;;;;;2.30;1.73;;;;;;;;;;5077090;28;20474;-84
2023/12/30 01:44:29;;;;;;;2.00;1.55;;;;;;;;;;5094977;28;20381;-84
2023/12/30 01:46:55;;;;;;;1.67;1.40;;;;;;;;;;5078136;28;20379;-84
2023/12/30 01:49:21;;;;;;;2.13;1.92;;;;;;;;;;5073492;28;20384;-84
2023/12/30 01:51:48;;;;;;;2.15;1.70;;;;;;;;;;5055604;28;20388;-84
2023/12/30 01:54:16;;;;;;;1.85;1.65;;;;;;;;;;5073497;28;20408;-85
2023/12/30 01:56:42;;;;;;;2.92;1.58;;;;;;;;;;5073733;28;21009;-84
2023/12/30 01:59:09;;;;;;;1.95;1.23;;;;;;;;;;5072943;28;20418;-84
2023/12/30 02:01:35;;;;;;;2.85;1.15;;;;;;;;;;5073966;28;20454;-84
2023/12/30 02:04:01;;;;;;;1.35;1.20;;;;;;;;;;5055758;28;20927;-84
2023/12/30 02:06:27;;;;;;;1.25;0.90;;;;;;;;;;5055010;28;20388;-84
2023/12/30 02:08:53;;;;;;;1.77;1.20;;;;;;;;;;5073492;28;20391;-84
2023/12/30 02:11:19;;;;;;;1.65;1.20;;;;;;;;;;5055693;28;20380;-84
2023/12/30 02:13:45;;;;;;;1.23;1.02;;;;;;;;;;5073470;28;20403;-84
2023/12/30 02:16:11;;;;;;;1.40;1.30;;;;;;;;;;5074106;28;20427;-84
2023/12/30 02:18:38;;;;;;;1.50;1.25;;;;;;;;;;5077610;28;20376;-84
2023/12/30 02:21:04;;;;;;;1.58;1.30;;;;;;;;;;5061777;28;20518;-84
2023/12/30 02:23:30;;;;;;;2.10;1.40;;;;;;;;;;5081153;28;20430;-85
2023/12/30 02:25:56;;;;;;;2.55;1.60;;;;;;;;;;5081055;28;20372;-85
2023/12/30 02:28:22;;;;;;;1.30;1.20;;;;;;;;;;5065422;28;21181;-85
2023/12/30 02:30:48;;;;;;;2.03;1.23;;;;;;;;;;5083229;28;20392;-84
2023/12/30 02:33:14;;;;;;;1.58;1.10;;;;;;;;;;5082873;28;20510;-85
2023/12/30 02:35:43;;;;;;;1.93;1.43;;;;;;;;;;5082727;28;20949;-85
2023/12/30 02:38:09;;;;;;;2.60;1.40;;;;;;;;;;5082232;28;20846;-85
2023/12/30 02:40:35;;;;;;;2.38;1.40;;;;;;;;;;5082117;28;20383;-84
2023/12/30 02:43:01;;;;;;;1.77;1.30;;;;;;;;;;5079878;28;20931;-85
2023/12/30 02:45:27;;;;;;;2.10;1.50;;;;;;;;;;5080470;28;20381;-84
2023/12/30 02:47:53;;;;;;;2.30;1.40;;;;;;;;;;5099231;28;20370;-84
2023/12/30 02:50:19;;;;;;;2.05;1.60;;;;;;;;;;5100643;28;20377;-85
2023/12/30 02:52:45;;;;;;;2.30;1.43;;;;;;;;;;5100161;28;20370;-84
2023/12/30 02:55:11;;;;;;;2.58;1.60;;;;;;;;;;5083566;28;20411;-85
2023/12/30 02:57:37;;;;;;;2.92;1.55;;;;;;;;;;5045488;28;20779;-84
2023/12/30 03:00:04;;;;;;;3.80;1.60;;;;;;;;;;5060852;28;20385;-85
2023/12/30 03:02:31;;;;;;;2.53;1.45;;;;;;;;;;5060331;28;20759;-85
2023/12/30 03:04:57;;;;;;;2.08;1.25;;;;;;;;;;5060395;28;20385;-84
2023/12/30 03:07:24;;;;;;;2.10;1.30;;;;;;;;;;5059689;28;20762;-84
2023/12/30 03:09:50;;;;;;;2.55;1.15;;;;;;;;;;5059901;28;20388;-84
2023/12/30 03:12:16;;;;;;;1.90;1.30;;;;;;;;;;5074808;28;20429;-84
2023/12/30 03:14:42;;;;;;;1.35;1.10;;;;;;;;;;5079652;28;20504;-84
2023/12/30 03:17:08;;;;;;;2.50;1.00;;;;;;;;;;5079390;28;20372;-85
2023/12/30 03:19:34;;;;;;;1.43;1.23;;;;;;;;;;5080826;28;20391;-85
2023/12/30 03:22:00;;;;;;;1.58;1.00;;;;;;;;;;5077992;28;20384;-84
2023/12/30 03:24:26;;;;;;;2.10;1.20;;;;;;;;;;5080205;28;20883;-84
2023/12/30 03:26:53;;;;;;;1.60;1.10;;;;;;;;;;5078210;28;20480;-85
2023/12/30 03:29:20;;;;;;;1.47;1.00;;;;;;;;;;5078622;28;20413;-84
2023/12/30 03:31:46;;;;;;;2.50;1.20;;;;;;;;;;5079662;28;20384;-85
2023/12/30 03:34:12;;;;;;;2.30;1.30;;;;;;;;;;5080371;28;20418;-84
2023/12/30 03:36:38;;;;;;;1.45;1.17;;;;;;;;;;5078367;28;20391;-84
2023/12/30 03:39:04;;;;;;;2.83;1.08;;;;;;;;;;5080158;28;20380;-85
2023/12/30 03:41:30;;;;;;;1.63;1.17;;;;;;;;;;5080364;28;20415;-84
2023/12/30 03:43:56;;;;;;;2.00;1.33;;;;;;;;;;5078354;28;20398;-85
2023/12/30 03:46:22;;;;;;;1.98;1.10;;;;;;;;;;5080011;28;20395;-84
2023/12/30 03:48:48;;;;;;;2.27;1.30;;;;;;;;;;5079596;28;20432;-85
2023/12/30 03:51:14;;;;;;;2.50;1.27;;;;;;;;;;5079605;28;20384;-84
2023/12/30 03:53:40;;;;;;;2.13;1.20;;;;;;;;;;5078608;28;20919;-85
2023/12/30 03:56:07;;;;;;;1.70;1.10;;;;;;;;;;5060066;28;20772;-84
2023/12/30 03:58:33;;;;;;;2.25;1.30;;;;;;;;;;5080034;28;20384;-85
2023/12/30 04:00:59;;;;;;;3.40;1.23;;;;;;;;;;5079881;28;20865;-85
2023/12/30 04:03:25;;;;;;;1.23;0.90;;;;;;;;;;5055344;28;20382;-85
2023/12/30 04:05:51;;;;;;;2.30;1.20;;;;;;;;;;5059683;28;20392;-85
2023/12/30 04:08:16;;;;;;;1.63;0.95;;;;;;;;;;5060346;28;20436;-85
2023/12/30 04:10:42;;;;;;;1.90;1.00;;;;;;;;;;5060144;28;20524;-84
2023/12/30 04:13:09;;;;;;;1.05;0.80;;;;;;;;;;5059678;28;20439;-85
2023/12/30 04:15:35;;;;;;;2.38;0.88;;;;;;;;;;5058914;28;20397;-85
2023/12/30 04:18:01;;;;;;;2.35;0.95;;;;;;;;;;5057073;28;20386;-85
2023/12/30 04:20:27;;;;;;;1.80;1.10;;;;;;;;;;5057563;28;20470;-85
2023/12/30 04:22:54;;;;;;;3.25;1.00;;;;;;;;;;5059022;28;20709;-84
2023/12/30 04:25:20;;;;;;;1.20;0.90;;;;;;;;;;5058018;28;20464;-84
2023/12/30 04:27:46;;;;;;;1.58;1.08;;;;;;;;;;5061488;28;20474;-85
2023/12/30 04:30:12;;;;;;;1.50;1.00;;;;;;;;;;5062713;28;20499;-84
2023/12/30 04:32:38;;;;;;;3.72;1.50;;;;;;;;;;5061698;28;20378;-84
2023/12/30 04:35:05;;;;;;;2.00;1.30;;;;;;;;;;5060338;28;20405;-85
2023/12/30 04:37:31;;;;;;;1.35;1.25;;;;;;;;;;5062131;28;20382;-85
2023/12/30 04:39:56;;;;;;;1.23;1.08;;;;;;;;;;5062484;28;20866;-85
2023/12/30 04:42:22;;;;;;;2.70;1.60;;;;;;;;;;5061659;28;20417;-85
2023/12/30 04:44:48;;;;;;;1.60;1.50;;;;;;;;;;5060671;28;20511;-85
2023/12/30 04:47:14;;;;;;;3.45;2.40;;;;;;;;;;5060292;28;20393;-85
2023/12/30 04:49:40;;;;;;;2.55;2.30;;;;;;;;;;5060134;28;20428;-85
2023/12/30 04:52:06;;;;;;;3.43;2.40;;;;;;;;;;5058394;28;20732;-85
2023/12/30 04:54:33;;;;;;;2.80;2.55;;;;;;;;;;5061176;28;20415;-85
2023/12/30 04:56:59;;;;;;;3.50;2.60;;;;;;;;;;5079102;28;20411;-85
2023/12/30 04:59:26;;;;;;;2.78;2.58;;;;;;;;;;5060480;28;20377;-85
2023/12/30 05:01:53;;;;;;;2.60;2.40;;;;;;;;;;5059718;28;20381;-84
2023/12/30 05:04:19;;;;;;;2.40;2.20;;;;;;;;;;5059617;28;20382;-85
2023/12/30 05:06:45;;;;;;;3.10;2.60;;;;;;;;;;5058509;28;20431;-85
2023/12/30 05:09:14;;;;;;;3.28;2.67;;;;;;;;;;5059216;28;20382;-84
2023/12/30 05:11:43;;;;;;;2.50;2.30;;;;;;;;;;5059647;28;20381;-84
2023/12/30 05:14:09;;;;;;;2.85;2.40;;;;;;;;;;5058774;28;20901;-84
2023/12/30 05:16:41;;;;;;;4.05;2.78;;;;;;;;;;5057951;28;20386;-85
2023/12/30 05:19:07;;;;;;;3.03;2.72;;;;;;;;;;5058979;28;20382;-84
2023/12/30 05:21:33;;;;;;;3.53;3.20;;;;;;;;;;5058183;28;20466;-84
2023/12/30 05:23:59;;;;;;;3.67;3.37;;;;;;;;;;5057292;28;20401;-85
2023/12/30 05:26:25;;;;;;;4.82;4.15;;;;;;;;;;5056068;28;20424;-84
2023/12/30 05:28:51;;;;;;;5.18;4.68;;;;;;;;;;5056973;28;20883;-84
2023/12/30 05:31:17;;;;;;;5.40;4.90;;;;;;;;;;5057581;28;20435;-85
2023/12/30 05:33:43;;;;;;;4.88;4.38;;;;;;;;;;5057879;28;20412;-85
2023/12/30 05:36:09;;;;;;;5.20;4.63;;;;;;;;;;5055867;28;20382;-84
2023/12/30 05:38:35;;;;;;;4.75;4.35;;;;;;;;;;5057912;28;20795;-85
2023/12/30 05:41:01;;;;;;;4.97;4.55;;;;;;;;;;5057340;28;20421;-85
2023/12/30 05:43:27;;;;;;;4.83;4.40;;;;;;;;;;5055991;28;20404;-84
2023/12/30 05:45:53;;;;;;;4.75;4.35;;;;;;;;;;5056924;28;20807;-85
2023/12/30 05:48:19;;;;;;;4.50;4.10;;;;;;;;;;5055899;28;20393;-85
2023/12/30 05:50:45;;;;;;;4.53;4.13;;;;;;;;;;5056631;28;20381;-84
2023/12/30 05:53:11;;;;;;;4.95;4.45;;;;;;;;;;5056805;28;20957;-84
2023/12/30 05:55:37;;;;;;;5.50;4.95;;;;;;;;;;5057354;28;20374;-84
2023/12/30 05:58:04;;;;;;;5.45;4.95;;;;;;;;;;5056078;28;20385;-84
2023/12/30 06:00:30;;;;;;;5.68;4.70;;;;;;;;;;5066552;28;20445;-84
2023/12/30 06:02:56;;;;;;;5.57;5.03;;;;;;;;;;5057989;28;20424;-85
2023/12/30 06:05:22;;;;;;;5.87;5.37;;;;;;;;;;5058623;28;20470;-84
2023/12/30 06:07:48;;;;;;;5.50;5.00;;;;;;;;;;5076500;28;20387;-85
2023/12/30 06:10:14;;;;;;;5.57;5.15;;;;;;;;;;5078122;28;20433;-85
2023/12/30 06:12:40;;;;;;;5.85;5.38;;;;;;;;;;5077499;28;20390;-84
2023/12/30 06:15:06;;;;;;;6.40;5.63;;;;;;;;;;5059043;28;20396;-85
2023/12/30 06:17:32;;;;;;;5.17;4.70;;;;;;;;;;5056573;28;20882;-84
2023/12/30 06:19:58;;;;;;;5.90;5.40;;;;;;;;;;5074446;28;20397;-83
2023/12/30 06:23:28;;;;;;;7.07;6.40;;;;;;;;;;5113665;27;20342;-83
2023/12/30 06:25:54;;;;;;;6.28;5.68;;;;;;;;;;5113917;28;20373;-84
2023/12/30 06:28:20;;;;;;;7.00;6.40;;;;;;;;;;5114148;28;20377;-83
2023/12/30 06:30:46;;;;;;;7.30;6.63;;;;;;;;;;5112964;28;20369;-84
2023/12/30 06:33:12;;;;;;;6.20;5.70;;;;;;;;;;5113226;28;20454;-83
2023/12/30 06:35:38;;;;;;;6.88;6.38;;;;;;;;;;5113265;28;20824;-84
2023/12/30 06:38:04;;;;;;;6.43;5.82;;;;;;;;;;5112160;28;20419;-84
2023/12/30 06:40:30;;;;;;;6.57;5.97;;;;;;;;;;5094765;28;20456;-84
2023/12/30 06:42:56;;;;;;;6.63;6.03;;;;;;;;;;5091849;28;20490;-83
2023/12/30 06:45:22;;;;;;;6.97;6.38;;;;;;;;;;5093144;28;20376;-83
2023/12/30 06:47:48;;;;;;;6.72;6.07;;;;;;;;;;5094611;28;20389;-82
2023/12/30 06:50:15;;;;;;;6.53;6.03;;;;;;;;;;5095320;28;20387;-83
2023/12/30 06:52:41;;;;;;;6.53;6.03;;;;;;;;;;5093937;28;20413;-83
2023/12/30 06:55:08;;;;;;;6.80;6.20;;;;;;;;;;5094950;28;20417;-83
2023/12/30 06:57:34;;;;;;;8.23;7.35;;;;;;;;;;5093250;28;20769;-82
2023/12/30 07:00:00;;;;;;;8.50;7.60;;;;;;;;;;5092407;28;20753;-83
2023/12/30 07:02:26;;;;;;;8.10;7.38;;;;;;;;;;5091008;28;20403;-83
2023/12/30 07:04:52;;;;;;;7.50;6.90;;;;;;;;;;5090905;28;20383;-83
2023/12/30 07:07:18;;;;;;;7.67;6.97;;;;;;;;;;5090125;28;20523;-83
2023/12/30 07:09:44;;;;;;;6.93;6.22;;;;;;;;;;5091916;28;20705;-84
2023/12/30 07:12:12;;;;;;;7.72;7.03;;;;;;;;;;5094425;28;20385;-84
2023/12/30 07:14:38;;;;;;;8.25;7.47;;;;;;;;;;5093117;28;20429;-83
2023/12/30 07:17:04;;;;;;;8.07;7.30;;;;;;;;;;5091320;28;20379;-83
2023/12/30 07:19:30;;;;;;;7.65;7.05;;;;;;;;;;5092727;28;20379;-84
2023/12/30 07:21:56;;;;;;;7.97;7.28;;;;;;;;;;5101822;28;20864;-84
2023/12/30 07:24:22;;;;;;;6.90;6.22;;;;;;;;;;5112467;28;20470;-84
2023/12/30 07:26:48;;;;;;;7.13;6.43;;;;;;;;;;5113516;28;20394;-83
2023/12/30 07:29:14;;;;;;;7.13;6.53;;;;;;;;;;5113853;28;20381;-81
2023/12/30 07:31:40;;;;;;;6.93;6.32;;;;;;;;;;5115338;28;20932;-84
2023/12/30 07:34:06;;;;;;;8.57;7.85;;;;;;;;;;5105208;28;20374;-84
2023/12/30 07:36:32;;;;;;;8.43;7.63;;;;;;;;;;5100106;28;20948;-84
2023/12/30 07:38:58;;;;;;;8.63;7.93;;;;;;;;;;5102685;28;20461;-84
2023/12/30 07:41:24;;;;;;;8.82;7.95;;;;;;;;;;5102154;28;20948;-84
2023/12/30 07:43:50;;;;;;;9.93;9.00;;;;;;;;;;5102144;28;20378;-84
2023/12/30 07:46:17;;;;;;;8.70;7.90;;;;;;;;;;5102240;28;20382;-83
2023/12/30 07:48:44;;;;;;;8.93;8.02;;;;;;;;;;5083086;28;20382;-83
2023/12/30 07:51:10;;;;;;;8.35;7.55;;;;;;;;;;5100420;28;20374;-83
2023/12/30 07:53:36;;;;;;;8.30;7.60;;;;;;;;;;5098474;28;20381;-84
2023/12/30 07:56:03;;;;;;;8.60;7.40;;;;;;;;;;5100133;28;20374;-84
2023/12/30 07:58:29;;;;;;;7.32;6.63;;;;;;;;;;5117578;28;20409;-84
2023/12/30 08:00:55;;;;;;;7.03;6.43;;;;;;;;;;5122889;28;20368;-84
2023/12/30 08:03:21;;;;;;;6.32;5.80;;;;;;;;;;5122043;28;20808;-83
2023/12/30 08:05:47;;;;;;;6.72;6.13;;;;;;;;;;5121568;28;20372;-83
2023/12/30 08:08:13;;;;;;;6.78;6.18;;;;;;;;;;5120842;28;20903;-83
2023/12/30 08:10:39;;;;;;;6.70;6.10;;;;;;;;;;5120499;28;20369;-84
2023/12/30 08:13:05;;;;;;;7.07;6.38;;;;;;;;;;5121995;28;20402;-84
2023/12/30 08:15:31;;;;;;;6.45;5.85;;;;;;;;;;5121859;28;20384;-84
2023/12/30 08:17:57;;;;;;;6.70;6.00;;;;;;;;;;5120607;28;20411;-83
2023/12/30 08:20:23;;;;;;;6.63;6.03;;;;;;;;;;5118236;28;20377;-82
2023/12/30 08:22:50;;;;;;;6.07;5.57;;;;;;;;;;5115379;28;20415;-83
2023/12/30 08:25:16;;;;;;;7.07;6.47;;;;;;;;;;5116815;28;20369;-83
2023/12/30 08:27:42;;;;;;;6.80;6.10;;;;;;;;;;5116775;28;20372;-82
2023/12/30 08:30:09;;;;;;;7.15;6.55;;;;;;;;;;5117242;28;20860;-83
2023/12/30 08:32:35;;;;;;;7.30;6.63;;;;;;;;;;5107821;28;20389;-83
2023/12/30 08:35:02;;;;;;;7.50;6.30;;;;;;;;;;5097615;28;20838;-83
2023/12/30 08:37:29;;;;;;;6.95;6.32;;;;;;;;;;5099015;28;20457;-83
2023/12/30 08:39:55;;;;;;;6.18;5.57;;;;;;;;;;5099103;28;20451;-82
2023/12/30 08:42:22;;;;;;;6.15;5.60;;;;;;;;;;5096883;28;20398;-81
2023/12/30 08:44:48;;;;;;;6.75;6.15;;;;;;;;;;5094995;28;20926;-82
2023/12/30 08:47:15;;;;;;;6.38;5.82;;;;;;;;;;5098011;28;20395;-83
2023/12/30 08:49:42;;;;;;;6.80;6.13;;;;;;;;;;5095725;28;20370;-82
2023/12/30 08:52:08;;;;;;;9.27;8.38;;;;;;;;;;5098226;28;20397;-82
2023/12/30 08:54:34;;;;;;;8.23;7.43;;;;;;;;;;5095518;28;20393;-82
2023/12/30 08:57:00;;;;;;;7.40;6.60;;;;;;;;;;5095792;28;20599;-83
2023/12/30 08:59:26;;;;;;;7.03;6.35;;;;;;;;;;5095874;28;20423;-83
2023/12/30 09:01:52;;;;;;;6.30;5.70;;;;;;;;;;5095120;28;20413;-82
2023/12/30 09:04:19;;;;;;;6.22;5.63;;;;;;;;;;5095534;28;20381;-83
2023/12/30 09:06:45;;;;;;;6.38;5.88;;;;;;;;;;5095239;28;20828;-83
2023/12/30 09:09:12;;;;;;;5.55;5.05;;;;;;;;;;5095772;28;20423;-80
2023/12/30 09:11:38;;;;;;;5.75;5.25;;;;;;;;;;5095341;28;20397;-83
2023/12/30 09:14:05;;;;;;;5.20;4.70;;;;;;;;;;5095129;28;20374;-83
2023/12/30 09:16:32;;;;;;;4.90;4.50;;;;;;;;;;5094867;28;20407;-82
2023/12/30 09:18:58;;;;;;;4.95;4.50;;;;;;;;;;5096165;28;20923;-82
2023/12/30 09:21:24;;;;;;;5.40;4.90;;;;;;;;;;5094259;28;20429;-83
2023/12/30 09:23:53;;;;;;;5.17;4.77;;;;;;;;;;5095556;28;20445;-83
2023/12/30 09:26:19;;;;;;;5.30;4.80;;;;;;;;;;5095223;28;20512;-82
2023/12/30 09:28:45;;;;;;;5.05;4.55;;;;;;;;;;5094687;28;20423;-83
2023/12/30 09:31:11;;;;;;;5.10;4.60;;;;;;;;;;5095500;28;20370;-82
2023/12/30 09:33:37;;;;;;;5.18;4.68;;;;;;;;;;5094543;28;20370;-82
2023/12/30 09:36:04;;;;;;;4.43;4.03;;;;;;;;;;5094310;28;20473;-82
2023/12/30 09:38:30;;;;;;;4.40;4.00;;;;;;;;;;5093983;28;20436;-81
2023/12/30 09:40:56;;;;;;;4.57;4.17;;;;;;;;;;5094963;28;20374;-83
2023/12/30 09:43:23;;;;;;;4.50;4.10;;;;;;;;;;5093673;28;20431;-82
2023/12/30 09:45:51;;;;;;;5.05;4.65;;;;;;;;;;5094913;28;20871;-83
2023/12/30 09:48:20;;;;;;;4.78;4.30;;;;;;;;;;5093725;28;20382;-82
2023/12/30 09:50:47;;;;;;;4.68;4.20;;;;;;;;;;5094252;28;20366;-83
2023/12/30 09:53:12;;;;;;;4.15;3.85;;;;;;;;;;5094870;28;20407;-82
2023/12/30 09:55:38;;;;;;;4.00;3.70;;;;;;;;;;5094907;28;20453;-84
2023/12/30 09:58:05;;;;;;;4.50;4.10;;;;;;;;;;5096473;28;20415;-84
2023/12/30 10:00:32;;;;;;;3.80;3.50;;;;;;;;;;5100652;28;20389;-84
2023/12/30 10:02:58;;;;;;;3.58;3.28;;;;;;;;;;5097728;28;20413;-83
2023/12/30 10:05:24;;;;;;;3.60;3.30;;;;;;;;;;5110908;28;20421;-84
2023/12/30 10:07:51;;;;;;;3.95;3.47;;;;;;;;;;5118633;28;20364;-83
2023/12/30 10:10:33;;;;;;;3.85;3.55;;;;;;;;;;5118603;28;20368;-83
2023/12/30 10:12:59;;;;;;;3.58;3.28;;;;;;;;;;5119331;28;20470;-83
2023/12/30 10:15:25;;;;;;;3.55;3.25;;;;;;;;;;5118600;28;20380;-82
2023/12/30 10:17:51;;;;;;;3.45;3.15;;;;;;;;;;5115132;28;20373;-83
2023/12/30 10:20:23;;;;;;;3.42;3.13;;;;;;;;;;5114806;28;20392;-82
2023/12/30 10:22:49;;;;;;;4.00;2.80;;;;;;;;;;5114961;28;20490;-82
2023/12/30 10:25:15;;;;;;;4.18;3.22;;;;;;;;;;5115107;28;20415;-83
2023/12/30 10:27:41;;;;;;;3.30;3.00;;;;;;;;;;5115783;28;20419;-83
2023/12/30 10:30:08;;;;;;;2.70;2.50;;;;;;;;;;5103392;28;20458;-82
2023/12/30 10:32:34;;;;;;;3.30;2.80;;;;;;;;;;5095286;28;20398;-83
2023/12/30 10:35:00;;;;;;;3.10;2.83;;;;;;;;;;5095722;28;20427;-83
2023/12/30 10:37:33;;;;;;;3.30;3.00;;;;;;;;;;5096638;28;20382;-82
2023/12/30 10:40:01;;;;;;;3.22;2.92;;;;;;;;;;5096987;28;20465;-82
2023/12/30 10:42:27;;;;;;;2.90;2.60;;;;;;;;;;5095574;28;20401;-83
2023/12/30 10:44:53;;;;;;;3.10;2.83;;;;;;;;;;5094589;28;20464;-83
2023/12/30 10:47:22;;;;;;;2.85;2.60;;;;;;;;;;5094181;28;20748;-83
2023/12/30 10:49:52;;;;;;;2.63;2.42;;;;;;;;;;5095266;28;20389;-83
2023/12/30 10:52:21;;;;;;;2.53;2.33;;;;;;;;;;5075824;28;21061;-83
2023/12/30 10:54:54;;;;;;;2.65;2.45;;;;;;;;;;5093964;28;20386;-82
2023/12/30 10:57:20;;;;;;;3.17;2.63;;;;;;;;;;5094812;28;20374;-82
2023/12/30 10:59:49;;;;;;;3.08;2.78;;;;;;;;;;5094003;28;20401;-83
2023/12/30 11:02:16;;;;;;;3.35;2.90;;;;;;;;;;5095731;28;20751;-83
2023/12/30 11:04:42;;;;;;;3.13;2.63;;;;;;;;;;5096305;28;20382;-82
2023/12/30 11:07:10;;;;;;;2.83;2.63;;;;;;;;;;5097516;28;20435;-83
2023/12/30 11:09:36;;;;;;;3.47;2.88;;;;;;;;;;5101232;28;20457;-82
2023/12/30 11:12:04;;;;;;;2.67;2.45;;;;;;;;;;5099777;28;20401;-81
2023/12/30 11:14:31;;;;;;;2.72;2.50;;;;;;;;;;5098106;28;20378;-82
2023/12/30 11:16:57;;;;;;;2.70;2.15;;;;;;;;;;5078142;28;20394;-82
2023/12/30 11:19:30;;;;;;;2.70;2.50;;;;;;;;;;5096939;28;20386;-82
2023/12/30 11:21:58;;;;;;;2.92;2.45;;;;;;;;;;5098148;28;20409;-81
2023/12/30 11:24:24;;;;;;;2.60;2.20;;;;;;;;;;5097720;28;20720;-81
2023/12/30 11:26:52;;;;;;;3.65;2.25;;;;;;;;;;5097933;28;20823;-82
2023/12/30 11:29:19;;;;;;;3.50;2.50;;;;;;;;;;5097751;28;20370;-81
2023/12/30 11:31:46;;;;;;;2.88;2.47;;;;;;;;;;5097225;28;20388;-82
2023/12/30 11:34:14;;;;;;;4.13;3.08;;;;;;;;;;5097268;28;20414;-81
2023/12/30 11:36:41;;;;;;;2.55;2.35;;;;;;;;;;5097799;28;20414;-83
2023/12/30 11:39:07;;;;;;;2.53;2.33;;;;;;;;;;5097299;28;20778;-81
2023/12/30 11:41:34;;;;;;;3.40;2.47;;;;;;;;;;5096332;28;20416;-83
2023/12/30 11:44:02;;;;;;;3.17;2.10;;;;;;;;;;5097390;28;20393;-82
2023/12/30 11:46:28;;;;;;;2.78;2.20;;;;;;;;;;5096614;28;20515;-82
2023/12/30 11:48:56;;;;;;;2.22;2.03;;;;;;;;;;5097075;28;20374;-82
2023/12/30 11:51:22;;;;;;;2.10;1.80;;;;;;;;;;5097283;28;20381;-82
2023/12/30 11:53:48;;;;;;;3.08;2.10;;;;;;;;;;5097704;28;20385;-82
2023/12/30 11:56:15;;;;;;;3.53;2.03;;;;;;;;;;5099484;28;20374;-82
2023/12/30 11:58:41;;;;;;;1.80;1.70;;;;;;;;;;5097763;28;20366;-83
2023/12/30 12:01:08;;;;;;;2.75;2.22;;;;;;;;;;5096197;28;20439;-85
2023/12/30 12:03:33;;;;;;;1.80;1.67;;;;;;;;;;5095989;28;20397;-84
2023/12/30 12:05:59;;;;;;;3.95;2.20;;;;;;;;;;5098143;28;20792;-84
2023/12/30 12:08:25;;;;;;;3.60;2.05;;;;;;;;;;5097033;28;20389;-83
2023/12/30 12:10:51;;;;;;;2.40;2.20;;;;;;;;;;5098539;28;20457;-83
2023/12/30 12:13:21;;;;;;;2.38;2.17;;;;;;;;;;5117127;28;20745;-84
2023/12/30 12:15:48;;;;;;;2.13;1.70;;;;;;;;;;5116800;28;20417;-82
2023/12/30 12:18:14;;;;;;;1.50;1.40;;;;;;;;;;5116214;28;20373;-83
2023/12/30 12:20:45;;;;;;;2.38;1.45;;;;;;;;;;5116682;28;20850;-83
2023/12/30 12:23:11;;;;;;;2.10;1.55;;;;;;;;;;5115159;28;20419;-82
2023/12/30 12:25:37;;;;;;;1.93;1.80;;;;;;;;;;5116870;28;20380;-82
2023/12/30 12:28:10;;;;;;;3.90;1.67;;;;;;;;;;5115987;28;20726;-82
2023/12/30 12:30:37;;;;;;;1.90;1.50;;;;;;;;;;5116354;28;20417;-82
2023/12/30 12:33:03;;;;;;;3.00;1.83;;;;;;;;;;5115263;28;20452;-82
2023/12/30 12:35:30;;;;;;;2.40;1.67;;;;;;;;;;5116404;28;20368;-82
2023/12/30 12:37:56;;;;;;;2.60;1.85;;;;;;;;;;5102015;28;20864;-82
2023/12/30 12:40:22;;;;;;;1.70;1.60;;;;;;;;;;5095310;28;21015;-82
2023/12/30 12:42:48;;;;;;;2.40;1.80;;;;;;;;;;5076950;28;20445;-81
2023/12/30 12:45:14;;;;;;;1.80;1.50;;;;;;;;;;5095132;28;20384;-82
2023/12/30 12:47:40;;;;;;;2.10;1.73;;;;;;;;;;5095514;28;20386;-82
2023/12/30 12:50:07;;;;;;;2.20;1.83;;;;;;;;;;5095166;28;20704;-82
2023/12/30 12:52:33;;;;;;;2.35;1.83;;;;;;;;;;5095590;28;20389;-82
2023/12/30 12:54:59;;;;;;;1.60;1.50;;;;;;;;;;5095134;28;20382;-82
2023/12/30 12:57:25;;;;;;;1.63;1.45;;;;;;;;;;5094484;28;20425;-82
2023/12/30 12:59:51;;;;;;;2.65;1.50;;;;;;;;;;5094689;28;21169;-82
2023/12/30 13:02:17;;;;;;;1.95;1.50;;;;;;;;;;5094836;28;20412;-82
2023/12/30 13:04:43;;;;;;;2.80;1.40;;;;;;;;;;5096476;28;20374;-83
2023/12/30 13:07:11;;;;;;;1.65;1.40;;;;;;;;;;5096632;28;20374;-82
2023/12/30 13:09:53;;;;;;;1.88;1.38;;;;;;;;;;5096172;28;20374;-82
2023/12/30 13:12:20;;;;;;;2.20;1.67;;;;;;;;;;5096221;28;20374;-82
2023/12/30 13:14:46;;;;;;;2.07;1.27;;;;;;;;;;5095061;28;20426;-82
2023/12/30 13:17:12;;;;;;;1.70;1.30;;;;;;;;;;5095780;28;20477;-82
2023/12/30 13:19:41;;;;;;;1.27;1.00;;;;;;;;;;5096505;28;20369;-83
2023/12/30 13:22:08;;;;;;;1.52;1.40;;;;;;;;;;5096041;28;20406;-83
2023/12/30 13:24:34;;;;;;;3.83;2.38;;;;;;;;;;5096632;28;20401;-82
2023/12/30 13:27:00;;;;;;;4.75;2.30;;;;;;;;;;5096609;28;20397;-82
2023/12/30 13:29:26;;;;;;;3.75;1.98;;;;;;;;;;5095263;28;20385;-82
2023/12/30 13:31:54;;;;;;;4.78;2.50;;;;;;;;;;5094861;28;20378;-82
2023/12/30 13:34:20;;;;;;;1.97;1.60;;;;;;;;;;5095496;28;20739;-83
2023/12/30 13:36:48;;;;;;;1.90;1.50;;;;;;;;;;5095208;28;20436;-82
2023/12/30 13:39:15;;;;;;;1.50;1.30;;;;;;;;;;5096689;28;20467;-82
2023/12/30 13:41:41;;;;;;;1.77;1.33;;;;;;;;;;5095867;28;20409;-82
2023/12/30 13:44:09;;;;;;;1.90;1.30;;;;;;;;;;5095224;28;20762;-82
2023/12/30 13:51:35;;;;;;;2.08;1.50;;;;;;;;;;5096457;28;20372;-82
2023/12/30 13:54:02;;;;;;;2.63;1.27;;;;;;;;;;5094652;28;20374;-82
2023/12/30 13:56:28;;;;;;;2.10;1.20;;;;;;;;;;5095820;28;20389;-82
2023/12/30 13:58:57;;;;;;;2.10;1.45;;;;;;;;;;5096556;28;20374;-82
2023/12/30 14:01:23;;;;;;;1.67;1.58;;;;;;;;;;5095999;28;20389;-82
2023/12/30 14:03:55;;;;;;;1.98;1.52;;;;;;;;;;5095910;28;20514;-82
2023/12/30 14:06:29;;;;;;;2.00;1.50;;;;;;;;;;5077335;28;20715;-81
2023/12/30 14:08:55;;;;;;;1.60;1.50;;;;;;;;;;5092971;28;20373;-82
2023/12/30 14:11:31;;;;;;;2.05;1.58;;;;;;;;;;5092392;28;20374;-82
2023/12/30 14:13:58;;;;;;;1.70;1.60;;;;;;;;;;5110267;28;20408;-82
2023/12/30 14:16:24;;;;;;;2.10;1.88;;;;;;;;;;5111879;28;20387;-81
2023/12/30 14:18:50;;;;;;;3.33;2.00;;;;;;;;;;5094123;28;20729;-82
2023/12/30 14:21:17;;;;;;;3.35;1.80;;;;;;;;;;5112466;28;20435;-81
2023/12/30 14:23:43;;;;;;;2.90;2.27;;;;;;;;;;5112327;28;20467;-82
2023/12/30 14:26:09;;;;;;;1.85;1.50;;;;;;;;;;5111983;28;20456;-82
2023/12/30 14:28:35;;;;;;;3.38;1.73;;;;;;;;;;5112233;28;20376;-81
2023/12/30 14:31:02;;;;;;;2.63;1.52;;;;;;;;;;5112365;28;20496;-81
2023/12/30 14:33:28;;;;;;;3.53;1.70;;;;;;;;;;5112377;28;20728;-81
2023/12/30 14:35:54;;;;;;;3.43;2.00;;;;;;;;;;5112402;28;20471;-82
2023/12/30 14:38:20;;;;;;;3.83;3.25;;;;;;;;;;5112966;28;20384;-82
2023/12/30 14:40:46;;;;;;;2.70;2.13;;;;;;;;;;5112747;28;20376;-82
2023/12/30 14:43:13;;;;;;;2.72;1.70;;;;;;;;;;5112862;28;20400;-82
2023/12/30 14:45:39;;;;;;;2.65;1.92;;;;;;;;;;5117255;28;20376;-81